sensor_id;sensor_type;location;lat;lon;timestamp;pressure;altitude;pressure_sealevel;temperature;humidity
61357;BME280;47227;46.752;23.576;2022-11-15T00:00:26;96896.28;;;1.36;93.41
61357;BME280;47227;46.752;23.576;2022-11-15T00:03:06;96895.46;;;1.33;93.38
61357;BME280;47227;46.752;23.576;2022-11-15T00:05:47;96896.45;;;1.27;93.14
61357;BME280;47227;46.752;23.576;2022-11-15T00:08:29;96898.91;;;1.20;92.94
61357;BME280;47227;46.752;23.576;2022-11-15T00:11:10;96889.83;;;1.12;92.64
61357;BME280;47227;46.752;23.576;2022-11-15T00:13:47;96892.22;;;1.03;92.53
61357;BME280;47227;46.752;23.576;2022-11-15T00:16:28;96890.42;;;0.94;92.13
61357;BME280;47227;46.752;23.576;2022-11-15T00:19:08;96889.40;;;0.88;91.97
61357;BME280;47227;46.752;23.576;2022-11-15T00:21:48;96888.01;;;0.81;92.00
61357;BME280;47227;46.752;23.576;2022-11-15T00:24:28;96883.61;;;0.74;92.01
61357;BME280;47227;46.752;23.576;2022-11-15T00:27:08;96876.09;;;0.67;91.70
61357;BME280;47227;46.752;23.576;2022-11-15T00:29:48;96877.77;;;0.61;91.82
61357;BME280;47227;46.752;23.576;2022-11-15T00:32:32;96879.11;;;0.56;91.69
61357;BME280;47227;46.752;23.576;2022-11-15T00:35:09;96876.77;;;0.52;91.66
61357;BME280;47227;46.752;23.576;2022-11-15T00:37:49;96878.10;;;0.49;91.66
61357;BME280;47227;46.752;23.576;2022-11-15T00:40:29;96872.00;;;0.46;91.94
61357;BME280;47227;46.752;23.576;2022-11-15T00:43:09;96873.92;;;0.46;91.86
61357;BME280;47227;46.752;23.576;2022-11-15T00:45:49;96870.23;;;0.47;92.11
61357;BME280;47227;46.752;23.576;2022-11-15T00:48:30;96864.16;;;0.53;92.22
61357;BME280;47227;46.752;23.576;2022-11-15T00:51:10;96865.16;;;0.60;92.34
61357;BME280;47227;46.752;23.576;2022-11-15T00:53:50;96863.26;;;0.65;92.17
61357;BME280;47227;46.752;23.576;2022-11-15T00:56:30;96862.40;;;0.69;92.52
61357;BME280;47227;46.752;23.576;2022-11-15T00:59:10;96866.25;;;0.73;92.29
61357;BME280;47227;46.752;23.576;2022-11-15T01:01:50;96864.73;;;0.78;92.20
61357;BME280;47227;46.752;23.576;2022-11-15T01:04:30;96862.88;;;0.80;92.12
61357;BME280;47227;46.752;23.576;2022-11-15T01:07:11;96859.62;;;0.87;92.19
61357;BME280;47227;46.752;23.576;2022-11-15T01:09:51;96857.08;;;0.94;92.75
61357;BME280;47227;46.752;23.576;2022-11-15T01:12:31;96854.50;;;0.99;92.56
61357;BME280;47227;46.752;23.576;2022-11-15T01:15:11;96854.30;;;1.00;92.58
61357;BME280;47227;46.752;23.576;2022-11-15T01:17:51;96848.75;;;0.99;92.52
61357;BME280;47227;46.752;23.576;2022-11-15T01:20:31;96840.79;;;0.96;92.12
61357;BME280;47227;46.752;23.576;2022-11-15T01:23:12;96842.09;;;0.91;91.84
61357;BME280;47227;46.752;23.576;2022-11-15T01:25:52;96834.99;;;0.82;91.99
61357;BME280;47227;46.752;23.576;2022-11-15T01:28:35;96832.98;;;0.77;91.87
61357;BME280;47227;46.752;23.576;2022-11-15T01:31:16;96829.45;;;0.73;91.75
61357;BME280;47227;46.752;23.576;2022-11-15T01:34:02;96826.27;;;0.68;91.64
61357;BME280;47227;46.752;23.576;2022-11-15T01:36:42;96825.17;;;0.62;91.91
61357;BME280;47227;46.752;23.576;2022-11-15T01:39:23;96818.19;;;0.58;92.07
61357;BME280;47227;46.752;23.576;2022-11-15T01:42:03;96813.73;;;0.57;91.97
61357;BME280;47227;46.752;23.576;2022-11-15T01:44:47;96809.30;;;0.56;92.13
61357;BME280;47227;46.752;23.576;2022-11-15T01:47:38;96809.24;;;0.55;92.10
61357;BME280;47227;46.752;23.576;2022-11-15T01:50:27;96806.69;;;0.52;91.97
61357;BME280;47227;46.752;23.576;2022-11-15T01:53:14;96807.25;;;0.48;92.02
61357;BME280;47227;46.752;23.576;2022-11-15T01:55:54;96805.20;;;0.45;91.73
61357;BME280;47227;46.752;23.576;2022-11-15T01:58:34;96803.71;;;0.46;91.54
61357;BME280;47227;46.752;23.576;2022-11-15T02:01:14;96796.74;;;0.45;91.82
61357;BME280;47227;46.752;23.576;2022-11-15T02:03:58;96795.20;;;0.44;91.92
61357;BME280;47227;46.752;23.576;2022-11-15T02:06:45;96791.02;;;0.44;92.00
61357;BME280;47227;46.752;23.576;2022-11-15T02:09:24;96790.77;;;0.46;91.96
61357;BME280;47227;46.752;23.576;2022-11-15T02:12:06;96793.50;;;0.50;92.00
61357;BME280;47227;46.752;23.576;2022-11-15T02:14:49;96788.36;;;0.53;92.05
61357;BME280;47227;46.752;23.576;2022-11-15T02:18:10;96784.16;;;0.58;92.07
61357;BME280;47227;46.752;23.576;2022-11-15T02:21:10;96789.61;;;0.57;91.91
61357;BME280;47227;46.752;23.576;2022-11-15T02:24:11;96787.67;;;0.53;91.85
61357;BME280;47227;46.752;23.576;2022-11-15T02:27:16;96786.67;;;0.52;91.64
61357;BME280;47227;46.752;23.576;2022-11-15T02:30:34;96792.23;;;0.57;92.02
61357;BME280;47227;46.752;23.576;2022-11-15T02:33:28;96794.16;;;0.62;92.41
61357;BME280;47227;46.752;23.576;2022-11-15T02:36:27;96789.59;;;0.65;92.46
61357;BME280;47227;46.752;23.576;2022-11-15T02:39:28;96792.47;;;0.65;92.31
61357;BME280;47227;46.752;23.576;2022-11-15T02:42:21;96787.80;;;0.64;92.09
61357;BME280;47227;46.752;23.576;2022-11-15T02:45:30;96788.80;;;0.58;92.01
61357;BME280;47227;46.752;23.576;2022-11-15T02:48:17;96785.02;;;0.49;91.74
61357;BME280;47227;46.752;23.576;2022-11-15T02:50:58;96783.62;;;0.46;91.89
61357;BME280;47227;46.752;23.576;2022-11-15T02:53:37;96789.38;;;0.42;92.34
61357;BME280;47227;46.752;23.576;2022-11-15T02:56:17;96789.73;;;0.33;92.62
61357;BME280;47227;46.752;23.576;2022-11-15T02:59:13;96787.20;;;0.26;94.00
61357;BME280;47227;46.752;23.576;2022-11-15T03:02:22;96786.98;;;0.14;95.55
61357;BME280;47227;46.752;23.576;2022-11-15T03:05:21;96786.95;;;0.05;96.48
61357;BME280;47227;46.752;23.576;2022-11-15T03:08:21;96794.81;;;0.07;95.47
61357;BME280;47227;46.752;23.576;2022-11-15T03:11:11;96797.55;;;0.08;95.10
61357;BME280;47227;46.752;23.576;2022-11-15T03:17:22;96795.14;;;0.07;94.62
61357;BME280;47227;46.752;23.576;2022-11-15T03:20:13;96790.41;;;0.08;94.36
61357;BME280;47227;46.752;23.576;2022-11-15T03:23:04;96790.28;;;0.12;94.11
61357;BME280;47227;46.752;23.576;2022-11-15T03:25:50;96789.73;;;0.15;93.82
61357;BME280;47227;46.752;23.576;2022-11-15T03:28:37;96786.77;;;0.17;93.60
61357;BME280;47227;46.752;23.576;2022-11-15T03:31:21;96784.52;;;0.22;93.55
61357;BME280;47227;46.752;23.576;2022-11-15T03:34:42;96779.60;;;0.26;93.50
61357;BME280;47227;46.752;23.576;2022-11-15T03:37:24;96780.73;;;0.27;93.20
61357;BME280;47227;46.752;23.576;2022-11-15T03:40:10;96780.13;;;0.35;93.37
61357;BME280;47227;46.752;23.576;2022-11-15T03:43:05;96774.46;;;0.40;93.42
61357;BME280;47227;46.752;23.576;2022-11-15T03:45:56;96769.98;;;0.40;92.82
61357;BME280;47227;46.752;23.576;2022-11-15T03:48:44;96764.44;;;0.43;92.88
61357;BME280;47227;46.752;23.576;2022-11-15T03:51:31;96765.91;;;0.46;92.69
61357;BME280;47227;46.752;23.576;2022-11-15T03:54:12;96764.48;;;0.41;92.70
61357;BME280;47227;46.752;23.576;2022-11-15T03:56:51;96764.42;;;0.31;93.12
61357;BME280;47227;46.752;23.576;2022-11-15T03:59:31;96760.84;;;0.32;93.17
61357;BME280;47227;46.752;23.576;2022-11-15T04:02:12;96753.50;;;0.27;93.44
61357;BME280;47227;46.752;23.576;2022-11-15T04:04:51;96749.38;;;0.04;94.25
61357;BME280;47227;46.752;23.576;2022-11-15T04:07:32;96746.81;;;0.01;94.96
61357;BME280;47227;46.752;23.576;2022-11-15T04:10:15;96751.77;;;0.06;94.37
61357;BME280;47227;46.752;23.576;2022-11-15T04:12:52;96746.88;;;0.05;94.46
61357;BME280;47227;46.752;23.576;2022-11-15T04:15:33;96745.67;;;0.02;94.25
61357;BME280;47227;46.752;23.576;2022-11-15T04:18:12;96743.06;;;-0.06;94.38
61357;BME280;47227;46.752;23.576;2022-11-15T04:20:53;96744.09;;;-0.06;94.14
61357;BME280;47227;46.752;23.576;2022-11-15T04:23:53;96751.28;;;-0.26;94.23
61357;BME280;47227;46.752;23.576;2022-11-15T04:26:43;96750.83;;;-0.33;94.25
61357;BME280;47227;46.752;23.576;2022-11-15T04:29:23;96749.48;;;-0.35;94.37
61357;BME280;47227;46.752;23.576;2022-11-15T04:32:23;96747.21;;;-0.34;94.04
61357;BME280;47227;46.752;23.576;2022-11-15T04:35:04;96746.74;;;-0.38;93.81
61357;BME280;47227;46.752;23.576;2022-11-15T04:37:44;96748.23;;;-0.41;93.54
61357;BME280;47227;46.752;23.576;2022-11-15T04:40:35;96744.89;;;-0.42;93.28
61357;BME280;47227;46.752;23.576;2022-11-15T04:43:14;96743.86;;;-0.41;93.25
61357;BME280;47227;46.752;23.576;2022-11-15T04:45:54;96741.05;;;-0.38;93.21
61357;BME280;47227;46.752;23.576;2022-11-15T04:48:34;96739.86;;;-0.33;93.21
61357;BME280;47227;46.752;23.576;2022-11-15T04:51:14;96741.77;;;-0.30;93.23
61357;BME280;47227;46.752;23.576;2022-11-15T04:53:54;96735.80;;;-0.24;93.21
61357;BME280;47227;46.752;23.576;2022-11-15T04:56:35;96729.60;;;-0.19;93.17
61357;BME280;47227;46.752;23.576;2022-11-15T04:59:15;96736.05;;;-0.14;93.37
61357;BME280;47227;46.752;23.576;2022-11-15T05:01:55;96735.36;;;-0.11;93.17
61357;BME280;47227;46.752;23.576;2022-11-15T05:04:35;96732.95;;;-0.08;92.98
61357;BME280;47227;46.752;23.576;2022-11-15T05:07:15;96734.73;;;-0.09;92.69
61357;BME280;47227;46.752;23.576;2022-11-15T05:09:56;96734.52;;;-0.05;92.87
61357;BME280;47227;46.752;23.576;2022-11-15T05:12:36;96737.60;;;-0.02;92.85
61357;BME280;47227;46.752;23.576;2022-11-15T05:15:16;96737.81;;;-0.05;92.41
61357;BME280;47227;46.752;23.576;2022-11-15T05:17:58;96736.42;;;-0.11;92.30
61357;BME280;47227;46.752;23.576;2022-11-15T05:20:36;96736.19;;;-0.17;92.06
61357;BME280;47227;46.752;23.576;2022-11-15T05:23:16;96731.90;;;-0.22;92.05
61357;BME280;47227;46.752;23.576;2022-11-15T05:26:00;96728.16;;;-0.28;91.85
61357;BME280;47227;46.752;23.576;2022-11-15T05:28:52;96731.72;;;-0.33;91.89
61357;BME280;47227;46.752;23.576;2022-11-15T05:31:39;96737.97;;;-0.35;92.00
61357;BME280;47227;46.752;23.576;2022-11-15T05:34:17;96743.85;;;-0.40;91.91
61357;BME280;47227;46.752;23.576;2022-11-15T05:36:58;96743.20;;;-0.45;91.76
61357;BME280;47227;46.752;23.576;2022-11-15T05:39:38;96742.18;;;-0.50;91.75
61357;BME280;47227;46.752;23.576;2022-11-15T05:42:17;96743.63;;;-0.51;92.12
61357;BME280;47227;46.752;23.576;2022-11-15T05:44:59;96736.37;;;-0.08;94.22
61357;BME280;47227;46.752;23.576;2022-11-15T05:47:38;96730.98;;;0.38;93.19
61357;BME280;47227;46.752;23.576;2022-11-15T05:50:18;96727.91;;;0.27;90.47
61357;BME280;47227;46.752;23.576;2022-11-15T05:52:59;96727.77;;;0.05;89.69
61357;BME280;47227;46.752;23.576;2022-11-15T05:55:48;96730.92;;;-0.00;90.23
61357;BME280;47227;46.752;23.576;2022-11-15T05:58:31;96735.53;;;0.00;90.70
61357;BME280;47227;46.752;23.576;2022-11-15T06:01:19;96735.80;;;0.01;90.48
61357;BME280;47227;46.752;23.576;2022-11-15T06:03:59;96735.15;;;0.00;90.66
61357;BME280;47227;46.752;23.576;2022-11-15T06:06:42;96730.52;;;0.04;90.74
61357;BME280;47227;46.752;23.576;2022-11-15T06:09:19;96728.59;;;0.04;90.71
61357;BME280;47227;46.752;23.576;2022-11-15T06:11:59;96724.30;;;0.06;90.62
61357;BME280;47227;46.752;23.576;2022-11-15T06:14:39;96727.99;;;0.12;90.92
61357;BME280;47227;46.752;23.576;2022-11-15T06:17:19;96726.35;;;0.23;91.02
61357;BME280;47227;46.752;23.576;2022-11-15T06:20:00;96732.52;;;0.29;91.00
61357;BME280;47227;46.752;23.576;2022-11-15T06:22:40;96731.88;;;0.35;90.96
61357;BME280;47227;46.752;23.576;2022-11-15T06:25:28;96733.56;;;0.39;91.04
61357;BME280;47227;46.752;23.576;2022-11-15T06:28:10;96732.61;;;0.48;91.24
61357;BME280;47227;46.752;23.576;2022-11-15T06:30:50;96731.59;;;0.51;91.20
61357;BME280;47227;46.752;23.576;2022-11-15T06:33:31;96734.77;;;0.52;91.09
61357;BME280;47227;46.752;23.576;2022-11-15T06:36:21;96735.14;;;0.50;90.98
61357;BME280;47227;46.752;23.576;2022-11-15T06:39:02;96731.89;;;0.47;90.57
61357;BME280;47227;46.752;23.576;2022-11-15T06:41:41;96730.39;;;0.41;90.44
61357;BME280;47227;46.752;23.576;2022-11-15T06:44:21;96732.60;;;0.39;90.57
61357;BME280;47227;46.752;23.576;2022-11-15T06:47:02;96736.97;;;0.37;90.55
61357;BME280;47227;46.752;23.576;2022-11-15T06:49:42;96737.20;;;0.36;90.32
61357;BME280;47227;46.752;23.576;2022-11-15T06:52:22;96737.92;;;0.34;90.10
61357;BME280;47227;46.752;23.576;2022-11-15T06:55:02;96734.92;;;0.34;90.12
61357;BME280;47227;46.752;23.576;2022-11-15T06:57:50;96734.25;;;0.33;90.18
61357;BME280;47227;46.752;23.576;2022-11-15T07:00:32;96734.42;;;0.36;90.54
61357;BME280;47227;46.752;23.576;2022-11-15T07:03:15;96721.79;;;0.40;90.37
61357;BME280;47227;46.752;23.576;2022-11-15T07:05:55;96720.54;;;0.44;90.64
61357;BME280;47227;46.752;23.576;2022-11-15T07:08:43;96714.14;;;0.46;90.53
61357;BME280;47227;46.752;23.576;2022-11-15T07:11:23;96715.27;;;0.51;90.71
61357;BME280;47227;46.752;23.576;2022-11-15T07:14:03;96713.20;;;0.58;90.60
61357;BME280;47227;46.752;23.576;2022-11-15T07:16:43;96708.54;;;0.65;90.77
61357;BME280;47227;46.752;23.576;2022-11-15T07:19:23;96707.02;;;0.71;90.93
61357;BME280;47227;46.752;23.576;2022-11-15T07:22:04;96703.80;;;0.79;90.96
61357;BME280;47227;46.752;23.576;2022-11-15T07:24:44;96704.81;;;0.90;90.97
61357;BME280;47227;46.752;23.576;2022-11-15T07:27:30;96707.74;;;0.98;90.60
61357;BME280;47227;46.752;23.576;2022-11-15T07:30:17;96706.21;;;1.06;90.47
61357;BME280;47227;46.752;23.576;2022-11-15T07:33:04;96709.41;;;1.16;90.18
61357;BME280;47227;46.752;23.576;2022-11-15T07:35:45;96711.67;;;1.28;90.52
61357;BME280;47227;46.752;23.576;2022-11-15T07:38:25;96710.89;;;1.39;90.12
61357;BME280;47227;46.752;23.576;2022-11-15T07:41:08;96709.00;;;1.48;89.63
61357;BME280;47227;46.752;23.576;2022-11-15T07:44:06;96710.88;;;1.60;89.81
61357;BME280;47227;46.752;23.576;2022-11-15T07:46:56;96711.52;;;1.70;89.54
61357;BME280;47227;46.752;23.576;2022-11-15T07:50:15;96705.02;;;1.82;89.23
61357;BME280;47227;46.752;23.576;2022-11-15T07:53:39;96707.43;;;1.88;88.65
61357;BME280;47227;46.752;23.576;2022-11-15T07:56:46;96710.05;;;1.94;88.61
61357;BME280;47227;46.752;23.576;2022-11-15T08:00:03;96707.98;;;1.90;87.45
61357;BME280;47227;46.752;23.576;2022-11-15T08:02:47;96706.49;;;1.88;87.51
61357;BME280;47227;46.752;23.576;2022-11-15T08:05:36;96707.70;;;1.92;88.04
61357;BME280;47227;46.752;23.576;2022-11-15T08:09:33;96702.69;;;1.87;87.29
61357;BME280;47227;46.752;23.576;2022-11-15T08:12:24;96700.13;;;1.92;87.93
61357;BME280;47227;46.752;23.576;2022-11-15T08:15:25;96698.61;;;1.97;87.64
61357;BME280;47227;46.752;23.576;2022-11-15T08:18:13;96695.06;;;1.93;87.11
61357;BME280;47227;46.752;23.576;2022-11-15T08:21:29;96686.04;;;1.96;86.99
61357;BME280;47227;46.752;23.576;2022-11-15T08:28:46;96682.44;;;2.18;87.50
61357;BME280;47227;46.752;23.576;2022-11-15T08:36:39;96667.91;;;2.05;86.23
61357;BME280;47227;46.752;23.576;2022-11-15T08:40:15;96668.23;;;2.15;86.53
61357;BME280;47227;46.752;23.576;2022-11-15T08:43:37;96669.23;;;2.16;86.17
61357;BME280;47227;46.752;23.576;2022-11-15T08:47:27;96667.31;;;1.96;85.24
61357;BME280;47227;46.752;23.576;2022-11-15T08:51:00;96661.12;;;1.71;85.90
61357;BME280;47227;46.752;23.576;2022-11-15T08:54:15;96662.61;;;1.58;86.57
61357;BME280;47227;46.752;23.576;2022-11-15T08:57:43;96659.71;;;1.59;86.97
61357;BME280;47227;46.752;23.576;2022-11-15T09:01:18;96651.77;;;1.83;87.23
61357;BME280;47227;46.752;23.576;2022-11-15T09:04:45;96645.48;;;1.97;86.09
61357;BME280;47227;46.752;23.576;2022-11-15T09:07:54;96647.76;;;1.93;85.54
61357;BME280;47227;46.752;23.576;2022-11-15T09:11:15;96647.25;;;2.01;85.36
61357;BME280;47227;46.752;23.576;2022-11-15T09:14:36;96643.05;;;2.03;84.97
61357;BME280;47227;46.752;23.576;2022-11-15T09:18:15;96643.36;;;1.75;85.00
61357;BME280;47227;46.752;23.576;2022-11-15T09:30:05;96630.71;;;2.35;85.31
61357;BME280;47227;46.752;23.576;2022-11-15T09:39:14;96619.08;;;2.58;83.58
61357;BME280;47227;46.752;23.576;2022-11-15T09:58:35;96586.17;;;4.09;80.04
61357;BME280;47227;46.752;23.576;2022-11-15T10:05:47;96570.58;;;4.31;79.49
61357;BME280;47227;46.752;23.576;2022-11-15T10:09:07;96568.54;;;4.27;78.92
61357;BME280;47227;46.752;23.576;2022-11-15T10:20:23;96563.52;;;4.50;78.87
61357;BME280;47227;46.752;23.576;2022-11-15T10:47:28;96516.35;;;4.52;77.37
61357;BME280;47227;46.752;23.576;2022-11-15T10:54:59;96522.19;;;4.42;78.04
61357;BME280;47227;46.752;23.576;2022-11-15T10:58:39;96517.27;;;4.35;78.37
61357;BME280;47227;46.752;23.576;2022-11-15T11:58:48;96408.93;;;6.42;73.61
61357;BME280;47227;46.752;23.576;2022-11-15T13:12:52;96364.26;;;5.66;79.61
61357;BME280;47227;46.752;23.576;2022-11-15T13:19:41;96358.09;;;5.47;80.31
61357;BME280;47227;46.752;23.576;2022-11-15T13:37:02;96341.77;;;5.51;80.20
61357;BME280;47227;46.752;23.576;2022-11-15T13:41:11;96330.09;;;5.34;80.77
61357;BME280;47227;46.752;23.576;2022-11-15T13:44:27;96327.03;;;5.32;81.16
61357;BME280;47227;46.752;23.576;2022-11-15T13:47:36;96330.94;;;5.34;81.39
61357;BME280;47227;46.752;23.576;2022-11-15T13:54:54;96316.11;;;5.26;81.90
61357;BME280;47227;46.752;23.576;2022-11-15T13:57:57;96318.59;;;5.04;83.33
61357;BME280;47227;46.752;23.576;2022-11-15T14:00:44;96321.45;;;4.94;83.43
61357;BME280;47227;46.752;23.576;2022-11-15T14:03:19;96323.80;;;4.82;84.21
61357;BME280;47227;46.752;23.576;2022-11-15T14:06:08;96322.48;;;4.83;83.66
61357;BME280;47227;46.752;23.576;2022-11-15T14:09:25;96321.48;;;4.84;83.48
61357;BME280;47227;46.752;23.576;2022-11-15T14:12:32;96319.86;;;4.81;84.16
61357;BME280;47227;46.752;23.576;2022-11-15T14:15:25;96318.15;;;4.73;84.33
61357;BME280;47227;46.752;23.576;2022-11-15T14:21:20;96311.89;;;4.63;84.49
61357;BME280;47227;46.752;23.576;2022-11-15T14:24:41;96305.42;;;4.54;84.12
61357;BME280;47227;46.752;23.576;2022-11-15T14:27:41;96306.45;;;4.47;84.20
61357;BME280;47227;46.752;23.576;2022-11-15T14:31:15;96307.16;;;4.40;84.14
61357;BME280;47227;46.752;23.576;2022-11-15T14:34:23;96303.21;;;4.31;84.73
61357;BME280;47227;46.752;23.576;2022-11-15T14:37:21;96297.36;;;4.25;84.68
61357;BME280;47227;46.752;23.576;2022-11-15T14:40:51;96303.16;;;4.24;84.75
61357;BME280;47227;46.752;23.576;2022-11-15T14:44:05;96303.33;;;4.20;85.43
61357;BME280;47227;46.752;23.576;2022-11-15T14:46:47;96298.25;;;4.15;86.34
61357;BME280;47227;46.752;23.576;2022-11-15T14:50:16;96293.39;;;4.10;85.66
61357;BME280;47227;46.752;23.576;2022-11-15T14:54:03;96286.88;;;4.02;85.52
61357;BME280;47227;46.752;23.576;2022-11-15T14:57:29;96283.00;;;4.04;85.59
61357;BME280;47227;46.752;23.576;2022-11-15T15:01:22;96279.70;;;3.99;86.00
61357;BME280;47227;46.752;23.576;2022-11-15T15:03:56;96275.71;;;3.93;85.96
61357;BME280;47227;46.752;23.576;2022-11-15T15:06:31;96274.61;;;3.94;86.26
61357;BME280;47227;46.752;23.576;2022-11-15T15:09:05;96274.98;;;3.96;86.21
61357;BME280;47227;46.752;23.576;2022-11-15T15:11:33;96277.85;;;3.99;86.54
61357;BME280;47227;46.752;23.576;2022-11-15T15:13:59;96272.14;;;4.01;86.32
61357;BME280;47227;46.752;23.576;2022-11-15T15:16:27;96276.05;;;4.01;86.38
61357;BME280;47227;46.752;23.576;2022-11-15T15:19:02;96275.77;;;4.03;86.00
61357;BME280;47227;46.752;23.576;2022-11-15T15:21:30;96269.86;;;4.03;86.57
61357;BME280;47227;46.752;23.576;2022-11-15T15:24:03;96266.14;;;4.05;87.40
61357;BME280;47227;46.752;23.576;2022-11-15T15:26:29;96267.75;;;4.10;87.01
61357;BME280;47227;46.752;23.576;2022-11-15T15:28:59;96269.04;;;4.11;87.39
61357;BME280;47227;46.752;23.576;2022-11-15T15:31:29;96264.13;;;4.07;87.51
61357;BME280;47227;46.752;23.576;2022-11-15T15:33:55;96263.29;;;4.08;87.20
61357;BME280;47227;46.752;23.576;2022-11-15T15:36:22;96263.89;;;4.09;87.06
61357;BME280;47227;46.752;23.576;2022-11-15T15:38:49;96264.85;;;4.07;86.85
61357;BME280;47227;46.752;23.576;2022-11-15T15:41:20;96263.09;;;4.05;86.93
61357;BME280;47227;46.752;23.576;2022-11-15T15:43:47;96259.18;;;3.98;88.30
61357;BME280;47227;46.752;23.576;2022-11-15T15:46:16;96258.96;;;3.90;88.07
61357;BME280;47227;46.752;23.576;2022-11-15T15:48:44;96261.45;;;3.86;87.52
61357;BME280;47227;46.752;23.576;2022-11-15T15:51:12;96261.15;;;3.81;87.91
61357;BME280;47227;46.752;23.576;2022-11-15T15:53:47;96262.21;;;3.74;88.96
61357;BME280;47227;46.752;23.576;2022-11-15T15:56:17;96260.10;;;3.69;89.12
61357;BME280;47227;46.752;23.576;2022-11-15T15:58:51;96256.48;;;3.66;88.32
61357;BME280;47227;46.752;23.576;2022-11-15T16:01:18;96258.82;;;3.63;88.18
61357;BME280;47227;46.752;23.576;2022-11-15T16:03:45;96247.92;;;3.59;87.95
61357;BME280;47227;46.752;23.576;2022-11-15T16:06:39;96239.39;;;3.56;88.19
61357;BME280;47227;46.752;23.576;2022-11-15T16:09:08;96247.27;;;3.54;88.11
61357;BME280;47227;46.752;23.576;2022-11-15T16:11:46;96251.02;;;3.50;88.32
61357;BME280;47227;46.752;23.576;2022-11-15T16:14:13;96247.67;;;3.45;88.45
61357;BME280;47227;46.752;23.576;2022-11-15T16:16:41;96242.77;;;3.42;88.50
61357;BME280;47227;46.752;23.576;2022-11-15T16:19:08;96237.88;;;3.41;88.41
61357;BME280;47227;46.752;23.576;2022-11-15T16:21:37;96232.34;;;3.43;88.51
61357;BME280;47227;46.752;23.576;2022-11-15T16:24:04;96228.13;;;3.47;88.37
61357;BME280;47227;46.752;23.576;2022-11-15T16:26:43;96219.70;;;3.53;88.43
61357;BME280;47227;46.752;23.576;2022-11-15T16:29:14;96218.95;;;3.60;88.62
61357;BME280;47227;46.752;23.576;2022-11-15T16:31:59;96218.90;;;3.65;88.66
61357;BME280;47227;46.752;23.576;2022-11-15T16:34:37;96222.98;;;3.70;88.56
61357;BME280;47227;46.752;23.576;2022-11-15T16:37:21;96221.36;;;3.69;88.08
61357;BME280;47227;46.752;23.576;2022-11-15T16:40:26;96211.54;;;3.61;88.03
61357;BME280;47227;46.752;23.576;2022-11-15T16:42:53;96208.46;;;3.58;88.24
61357;BME280;47227;46.752;23.576;2022-11-15T16:45:22;96210.14;;;3.60;88.05
61357;BME280;47227;46.752;23.576;2022-11-15T16:47:50;96207.54;;;3.62;88.07
61357;BME280;47227;46.752;23.576;2022-11-15T16:50:22;96202.91;;;3.65;88.36
61357;BME280;47227;46.752;23.576;2022-11-15T16:52:54;96199.61;;;3.70;88.52
61357;BME280;47227;46.752;23.576;2022-11-15T16:55:24;96197.92;;;3.68;88.70
61357;BME280;47227;46.752;23.576;2022-11-15T16:57:51;96194.98;;;3.62;89.22
61357;BME280;47227;46.752;23.576;2022-11-15T17:00:18;96196.56;;;3.60;89.07
61357;BME280;47227;46.752;23.576;2022-11-15T17:02:47;96203.59;;;3.61;88.76
61357;BME280;47227;46.752;23.576;2022-11-15T17:05:18;96204.05;;;3.59;88.59
61357;BME280;47227;46.752;23.576;2022-11-15T17:07:48;96197.73;;;3.56;88.27
61357;BME280;47227;46.752;23.576;2022-11-15T17:10:15;96189.79;;;3.49;88.27
61357;BME280;47227;46.752;23.576;2022-11-15T17:12:42;96188.84;;;3.43;88.28
61357;BME280;47227;46.752;23.576;2022-11-15T17:15:11;96188.69;;;3.39;88.26
61357;BME280;47227;46.752;23.576;2022-11-15T17:17:39;96189.87;;;3.36;88.07
61357;BME280;47227;46.752;23.576;2022-11-15T17:20:15;96186.08;;;3.31;88.08
61357;BME280;47227;46.752;23.576;2022-11-15T17:22:41;96183.97;;;3.28;88.22
61357;BME280;47227;46.752;23.576;2022-11-15T17:25:08;96182.02;;;3.24;88.38
61357;BME280;47227;46.752;23.576;2022-11-15T17:27:35;96183.42;;;3.22;88.41
61357;BME280;47227;46.752;23.576;2022-11-15T17:30:03;96182.12;;;3.21;88.46
61357;BME280;47227;46.752;23.576;2022-11-15T17:32:30;96172.27;;;3.15;88.95
61357;BME280;47227;46.752;23.576;2022-11-15T17:34:56;96166.36;;;3.11;90.56
61357;BME280;47227;46.752;23.576;2022-11-15T17:37:23;96161.02;;;3.12;89.59
61357;BME280;47227;46.752;23.576;2022-11-15T17:39:49;96164.84;;;3.13;89.33
61357;BME280;47227;46.752;23.576;2022-11-15T17:42:15;96169.13;;;3.17;89.47
61357;BME280;47227;46.752;23.576;2022-11-15T17:44:42;96163.70;;;3.20;89.97
61357;BME280;47227;46.752;23.576;2022-11-15T17:47:08;96152.69;;;3.21;91.04
61357;BME280;47227;46.752;23.576;2022-11-15T17:49:35;96148.75;;;3.20;91.87
61357;BME280;47227;46.752;23.576;2022-11-15T17:52:04;96141.47;;;3.29;91.11
61357;BME280;47227;46.752;23.576;2022-11-15T17:54:31;96133.58;;;3.39;91.10
61357;BME280;47227;46.752;23.576;2022-11-15T17:56:57;96128.02;;;3.49;90.95
61357;BME280;47227;46.752;23.576;2022-11-15T17:59:24;96129.15;;;3.58;90.88
61357;BME280;47227;46.752;23.576;2022-11-15T18:01:51;96134.82;;;3.66;91.01
61357;BME280;47227;46.752;23.576;2022-11-15T18:04:19;96144.70;;;3.69;90.71
61357;BME280;47227;46.752;23.576;2022-11-15T18:06:46;96148.17;;;3.69;90.30
61357;BME280;47227;46.752;23.576;2022-11-15T18:09:12;96151.41;;;3.66;90.03
61357;BME280;47227;46.752;23.576;2022-11-15T18:11:40;96149.73;;;3.60;89.81
61357;BME280;47227;46.752;23.576;2022-11-15T18:14:12;96150.14;;;3.54;89.69
61357;BME280;47227;46.752;23.576;2022-11-15T18:16:39;96148.02;;;3.49;89.83
61357;BME280;47227;46.752;23.576;2022-11-15T18:19:06;96145.16;;;3.44;89.86
61357;BME280;47227;46.752;23.576;2022-11-15T18:21:40;96146.89;;;3.41;89.98
61357;BME280;47227;46.752;23.576;2022-11-15T18:24:17;96146.13;;;3.42;89.97
61357;BME280;47227;46.752;23.576;2022-11-15T18:26:44;96145.70;;;3.41;90.07
61357;BME280;47227;46.752;23.576;2022-11-15T18:29:44;96146.29;;;3.41;90.18
61357;BME280;47227;46.752;23.576;2022-11-15T18:32:10;96145.38;;;3.40;90.20
61357;BME280;47227;46.752;23.576;2022-11-15T18:34:40;96145.07;;;3.36;90.94
61357;BME280;47227;46.752;23.576;2022-11-15T18:37:06;96141.97;;;3.32;90.87